Time;durP1;ratioP1;P1;durP2;ratioP2;P2;SDS_P1;SDS_P2;PMS_P1;PMS_P2;Temp;Humidity;BMP_temperature;BMP_pressure;BME280_temperature;BME280_humidity;BME280_pressure;Samples;Min_cycle;Max_cycle;Signal;HPM_P1;HPM_P2
2021/07/07 00:02:25;;;;;;;5.43;2.17;;;;;;;14.39;100.00;101078.19;5438253;22;21294;-68
2021/07/07 00:04:56;;;;;;;4.78;2.40;;;;;;;14.30;100.00;101079.09;5199133;28;20038;-67
2021/07/07 00:07:27;;;;;;;5.32;2.25;;;;;;;14.30;100.00;101085.19;5205632;28;20553;-67
2021/07/07 00:09:58;;;;;;;7.28;2.30;;;;;;;14.28;100.00;101073.97;5210765;28;20416;-67
2021/07/07 00:12:30;;;;;;;7.28;2.42;;;;;;;14.26;100.00;101073.28;5213616;28;20025;-67
2021/07/07 00:15:08;;;;;;;5.95;2.30;;;;;;;14.22;100.00;101071.91;5217879;28;20040;-67
2021/07/07 00:17:40;;;;;;;6.40;2.40;;;;;;;14.24;100.00;101075.22;5196880;28;20134;-67
2021/07/07 00:20:13;;;;;;;6.63;2.40;;;;;;;14.23;100.00;101073.56;5210882;28;20475;-67
2021/07/07 00:22:44;;;;;;;4.20;2.53;;;;;;;14.20;100.00;101065.13;5203845;28;20410;-67
2021/07/07 00:25:16;;;;;;;4.15;1.83;;;;;;;14.19;100.00;101068.75;5215887;28;20056;-67
2021/07/07 00:27:47;;;;;;;5.25;2.22;;;;;;;14.14;100.00;101061.28;5190823;28;20442;-67
2021/07/07 00:30:18;;;;;;;5.07;2.22;;;;;;;14.16;100.00;101061.13;5210937;28;20022;-67
2021/07/07 00:32:50;;;;;;;5.40;2.10;;;;;;;14.16;100.00;101064.59;5203163;28;20506;-67
2021/07/07 00:35:21;;;;;;;4.82;2.05;;;;;;;14.11;100.00;101064.22;5181655;28;20026;-67
2021/07/07 00:37:53;;;;;;;5.68;2.33;;;;;;;14.11;100.00;101062.41;5199211;28;20061;-67
2021/07/07 00:40:24;;;;;;;4.25;2.17;;;;;;;14.09;100.00;101068.78;5201759;28;20460;-67
2021/07/07 00:42:56;;;;;;;5.22;2.30;;;;;;;14.07;100.00;101063.69;5202630;28;20100;-67
2021/07/07 00:45:27;;;;;;;4.75;2.03;;;;;;;14.05;100.00;101073.56;5209524;28;20056;-67
2021/07/07 00:47:59;;;;;;;5.80;2.25;;;;;;;14.06;100.00;101069.09;5209587;28;20030;-67
2021/07/07 00:50:30;;;;;;;6.25;2.00;;;;;;;14.06;100.00;101064.66;5200592;28;20026;-67
2021/07/07 00:53:02;;;;;;;4.70;2.15;;;;;;;14.06;100.00;101061.22;5193301;28;20076;-67
2021/07/07 00:55:34;;;;;;;5.55;1.95;;;;;;;14.07;100.00;101068.13;5198725;28;20033;-67
2021/07/07 00:58:07;;;;;;;4.15;2.10;;;;;;;14.05;100.00;101068.28;5209218;28;20030;-67
2021/07/07 01:00:38;;;;;;;6.93;2.08;;;;;;;14.05;100.00;101070.06;5202426;28;20366;-67
2021/07/07 01:03:10;;;;;;;4.68;1.80;;;;;;;14.02;100.00;101065.13;5190215;28;20130;-67
2021/07/07 01:05:41;;;;;;;5.13;2.00;;;;;;;14.02;100.00;101067.75;5204516;28;20034;-67
2021/07/07 01:08:12;;;;;;;4.20;2.10;;;;;;;13.99;100.00;101076.75;5188069;28;20026;-67
2021/07/07 01:10:44;;;;;;;5.00;1.95;;;;;;;13.95;100.00;101071.94;5204513;28;20026;-67
2021/07/07 01:13:15;;;;;;;6.25;2.20;;;;;;;13.95;100.00;101064.03;5217958;28;20022;-67
2021/07/07 01:15:47;;;;;;;4.55;2.00;;;;;;;13.88;100.00;101061.97;5209806;28;20022;-67
2021/07/07 01:18:18;;;;;;;9.45;2.10;;;;;;;13.94;100.00;101068.47;5192722;28;20439;-66
2021/07/07 01:20:51;;;;;;;5.25;1.83;;;;;;;13.91;100.00;101063.50;5190502;28;20060;-67
2021/07/07 01:23:22;;;;;;;4.97;2.00;;;;;;;13.88;100.00;101061.97;5198759;28;20022;-67
2021/07/07 01:25:53;;;;;;;4.18;1.90;;;;;;;13.95;100.00;101069.31;5208021;28;20030;-67
2021/07/07 01:28:25;;;;;;;4.97;2.25;;;;;;;13.96;100.00;101066.50;5204870;28;20109;-67
2021/07/07 01:30:56;;;;;;;4.15;1.67;;;;;;;13.94;100.00;101063.22;5196391;28;20085;-67
2021/07/07 01:33:28;;;;;;;3.70;1.90;;;;;;;14.00;100.00;101061.78;5197756;28;20026;-67
2021/07/07 01:35:59;;;;;;;7.28;2.00;;;;;;;14.05;100.00;101059.53;5207673;28;20029;-67
2021/07/07 01:38:30;;;;;;;6.45;2.17;;;;;;;14.09;100.00;101064.38;5195904;28;20038;-67
2021/07/07 01:41:02;;;;;;;4.70;1.70;;;;;;;14.14;100.00;101055.19;5190107;28;20446;-67
2021/07/07 01:43:33;;;;;;;4.63;1.77;;;;;;;14.15;100.00;101059.47;5194706;28;20027;-67
2021/07/07 01:46:04;;;;;;;3.40;1.42;;;;;;;14.16;100.00;101059.31;5192047;28;20030;-67
2021/07/07 01:48:36;;;;;;;7.18;2.13;;;;;;;14.19;100.00;101060.84;5201959;28;20109;-67
2021/07/07 01:51:07;;;;;;;8.90;2.03;;;;;;;14.20;100.00;101060.69;5212168;28;20100;-67
2021/07/07 01:53:38;;;;;;;4.55;1.80;;;;;;;14.19;100.00;101064.31;5194767;28;20026;-67
2021/07/07 01:56:10;;;;;;;6.63;1.80;;;;;;;14.19;100.00;101056.41;5197715;28;20398;-67
2021/07/07 01:58:41;;;;;;;6.38;2.17;;;;;;;14.25;100.00;101055.00;5188881;28;20081;-67
2021/07/07 02:01:12;;;;;;;4.28;1.75;;;;;;;14.25;100.00;101061.09;5193723;28;20050;-67
2021/07/07 02:03:43;;;;;;;5.05;1.88;;;;;;;14.27;100.00;101066.19;5198174;28;20137;-67
2021/07/07 02:06:15;;;;;;;6.53;1.95;;;;;;;14.29;100.00;101066.91;5196324;28;20387;-67
2021/07/07 02:08:46;;;;;;;4.82;1.58;;;;;;;14.27;100.00;101064.38;5193230;28;20061;-67
2021/07/07 02:11:17;;;;;;;7.75;1.67;;;;;;;14.25;100.00;101063.72;5206998;28;20022;-67
2021/07/07 02:13:49;;;;;;;7.10;1.65;;;;;;;14.26;100.00;101069.81;5202173;28;20023;-67
2021/07/07 02:16:20;;;;;;;6.75;1.80;;;;;;;14.22;100.00;101064.00;5209866;28;20083;-67
2021/07/07 02:18:51;;;;;;;6.85;1.85;;;;;;;14.20;100.00;101068.59;5198874;28;20030;-67
2021/07/07 02:21:23;;;;;;;3.03;1.95;;;;;;;14.18;100.00;101069.72;5207266;28;20060;-66
2021/07/07 02:23:55;;;;;;;6.82;1.90;;;;;;;14.18;100.00;101073.19;5208232;28;20050;-66
2021/07/07 02:26:27;;;;;;;14.45;2.67;;;;;;;14.21;100.00;101066.81;5198898;28;20030;-66
2021/07/07 02:28:58;;;;;;;8.82;2.20;;;;;;;14.18;100.00;101060.03;5197194;28;20030;-67
2021/07/07 02:31:30;;;;;;;5.45;2.00;;;;;;;14.17;100.00;101068.06;5202511;28;20029;-66
2021/07/07 02:34:02;;;;;;;4.43;2.22;;;;;;;14.14;100.00;101074.47;5191240;28;20031;-67
2021/07/07 02:36:33;;;;;;;6.30;2.20;;;;;;;14.12;100.00;101071.13;5212065;28;20022;-67
2021/07/07 02:39:05;;;;;;;4.60;2.25;;;;;;;14.14;100.00;101071.84;5200498;28;20044;-66
2021/07/07 02:41:36;;;;;;;8.60;2.25;;;;;;;14.12;100.00;101071.13;5194432;28;20038;-67
2021/07/07 02:44:07;;;;;;;5.22;2.10;;;;;;;14.09;100.00;101068.78;5202928;28;20057;-67
2021/07/07 02:46:38;;;;;;;3.88;1.98;;;;;;;14.08;100.00;101061.88;5212420;28;20056;-67
2021/07/07 02:49:10;;;;;;;5.60;2.25;;;;;;;14.01;100.00;101061.63;5196359;28;20121;-67
2021/07/07 02:51:41;;;;;;;7.47;2.35;;;;;;;13.98;100.00;101059.31;5203587;28;20030;-66
2021/07/07 02:54:12;;;;;;;4.43;2.33;;;;;;;14.00;100.00;101061.78;5204416;28;20477;-67
2021/07/07 02:56:44;;;;;;;4.45;2.60;;;;;;;13.99;100.00;101068.03;5197184;28;20091;-66
2021/07/07 02:59:15;;;;;;;3.47;2.35;;;;;;;13.97;100.00;101069.97;5202297;28;20083;-66
2021/07/07 03:01:46;;;;;;;6.05;2.38;;;;;;;13.88;100.00;101061.16;5195195;28;20511;-67
2021/07/07 03:04:18;;;;;;;3.70;2.13;;;;;;;13.88;100.00;101063.78;5194178;28;20078;-67
2021/07/07 03:06:49;;;;;;;6.45;2.67;;;;;;;13.83;100.00;101058.97;5212734;28;20020;-67
2021/07/07 03:09:20;;;;;;;5.72;2.80;;;;;;;13.82;100.00;101065.19;5200794;28;20044;-67
2021/07/07 03:11:51;;;;;;;5.10;2.60;;;;;;;13.79;100.00;101062.88;5210807;28;20414;-67
2021/07/07 03:14:23;;;;;;;5.88;2.80;;;;;;;13.77;100.00;101067.44;5196029;28;20486;-67
2021/07/07 03:16:54;;;;;;;6.45;2.60;;;;;;;13.79;100.00;101069.94;5197171;28;20026;-66
2021/07/07 03:19:25;;;;;;;4.55;2.78;;;;;;;13.75;100.00;101079.94;5209307;28;20026;-67
2021/07/07 03:21:57;;;;;;;7.45;2.78;;;;;;;13.74;100.00;101080.88;5200110;28;20113;-67
2021/07/07 03:24:28;;;;;;;4.43;2.22;;;;;;;13.73;100.00;101081.88;5213602;28;20022;-67
2021/07/07 03:26:59;;;;;;;3.65;2.13;;;;;;;13.77;100.00;101082.41;5204502;28;20550;-67
2021/07/07 03:29:30;;;;;;;5.68;2.38;;;;;;;13.67;100.00;101087.69;5202159;28;20514;-66
2021/07/07 03:32:02;;;;;;;5.55;2.65;;;;;;;13.66;100.00;101090.50;5210603;28;20498;-67
2021/07/07 03:34:34;;;;;;;5.53;2.60;;;;;;;13.62;100.00;101090.78;5205876;28;20084;-67
2021/07/07 03:37:05;;;;;;;5.85;2.70;;;;;;;13.61;100.00;101094.38;5204872;28;20518;-67
2021/07/07 03:39:36;;;;;;;6.00;2.70;;;;;;;13.63;100.00;101095.06;5202343;28;20384;-66
2021/07/07 03:42:08;;;;;;;6.13;2.90;;;;;;;13.63;100.00;101094.22;5211251;28;20384;-67
2021/07/07 03:44:39;;;;;;;8.63;3.45;;;;;;;13.63;100.00;101091.59;5197360;28;20042;-67
2021/07/07 03:47:11;;;;;;;8.30;3.33;;;;;;;13.62;100.00;101092.56;5203224;28;20102;-66
2021/07/07 03:49:42;;;;;;;6.20;2.90;;;;;;;13.63;100.00;101100.31;5216967;28;20040;-66
2021/07/07 03:52:13;;;;;;;7.18;3.15;;;;;;;13.63;100.00;101097.69;5207918;28;20030;-66
2021/07/07 03:54:44;;;;;;;7.43;3.35;;;;;;;13.66;100.00;101104.47;5197850;28;20042;-67
2021/07/07 03:57:16;;;;;;;8.27;3.88;;;;;;;13.61;100.00;101110.19;5209810;28;20033;-66
2021/07/07 03:59:47;;;;;;;6.40;3.50;;;;;;;13.67;100.00;101110.56;5211437;28;20026;-67
2021/07/07 04:02:18;;;;;;;7.95;3.88;;;;;;;13.59;100.00;101111.28;5191923;28;20420;-67
2021/07/07 04:04:50;;;;;;;7.07;3.58;;;;;;;13.61;100.00;101104.91;5191392;28;20057;-67
2021/07/07 04:07:21;;;;;;;6.50;3.72;;;;;;;13.55;100.00;101108.09;5197214;28;20126;-67
2021/07/07 04:09:52;;;;;;;6.60;3.50;;;;;;;13.49;100.00;101100.81;5207631;28;20044;-67
2021/07/07 04:12:24;;;;;;;10.43;3.65;;;;;;;13.52;100.00;101115.47;5201443;28;20026;-66
2021/07/07 04:14:55;;;;;;;8.35;3.80;;;;;;;13.50;100.00;101122.69;5201112;28;20493;-67
2021/07/07 04:17:26;;;;;;;7.13;3.67;;;;;;;13.53;100.00;101128.50;5215121;28;20052;-66
2021/07/07 04:19:58;;;;;;;6.55;3.88;;;;;;;13.53;100.00;101135.56;5199162;28;20026;-66
2021/07/07 04:22:29;;;;;;;9.70;3.53;;;;;;;13.51;100.00;101129.59;5198756;28;20042;-67
2021/07/07 04:25:00;;;;;;;9.45;4.20;;;;;;;13.51;100.00;101130.44;5203219;28;20384;-67
2021/07/07 04:27:32;;;;;;;9.70;4.43;;;;;;;13.61;100.00;101125.97;5205257;28;20034;-67
2021/07/07 04:30:06;;;;;;;13.57;4.10;;;;;;;13.65;100.00;101142.31;5208487;28;20029;-67
2021/07/07 04:32:38;;;;;;;9.35;3.95;;;;;;;13.71;100.00;101136.47;5196927;28;20041;-67
2021/07/07 04:35:10;;;;;;;9.95;3.70;;;;;;;13.78;100.00;101136.72;5206816;28;20030;-67
2021/07/07 04:37:41;;;;;;;9.37;3.73;;;;;;;13.87;100.00;101130.63;5211870;28;20038;-67
2021/07/07 04:40:13;;;;;;;8.13;3.65;;;;;;;13.87;100.00;101131.44;5210364;28;20080;-67
2021/07/07 04:42:45;;;;;;;7.00;3.75;;;;;;;13.97;100.00;101138.47;5196699;28;20057;-66
2021/07/07 04:45:17;;;;;;;7.97;3.38;;;;;;;14.01;100.00;101143.28;5192857;28;20502;-67
2021/07/07 04:47:48;;;;;;;7.07;3.17;;;;;;;14.07;100.00;101145.34;5207079;28;20117;-67
2021/07/07 04:50:20;;;;;;;11.95;4.30;;;;;;;14.11;100.00;101153.81;5197484;28;20061;-66
2021/07/07 04:52:51;;;;;;;7.93;4.07;;;;;;;14.13;100.00;101149.22;5199110;28;20030;-67
2021/07/07 04:55:22;;;;;;;11.05;3.53;;;;;;;14.18;100.00;101146.97;5198995;28;20101;-67
2021/07/07 04:57:54;;;;;;;6.95;3.70;;;;;;;14.23;100.00;101147.34;5185058;28;20034;-67
2021/07/07 05:00:26;;;;;;;8.07;3.50;;;;;;;14.23;100.00;101150.00;5188677;28;20033;-66
2021/07/07 05:02:57;;;;;;;9.88;4.03;;;;;;;14.25;100.00;101152.50;5199434;28;20411;-67
2021/07/07 05:05:28;;;;;;;8.93;3.40;;;;;;;14.26;100.00;101156.78;5191452;28;20026;-67
2021/07/07 05:08:00;;;;;;;9.40;3.97;;;;;;;14.27;100.00;101155.81;5198566;28;20030;-66
2021/07/07 05:10:32;;;;;;;7.40;3.78;;;;;;;14.29;100.00;101164.41;5190175;28;20065;-67
2021/07/07 05:13:07;;;;;;;9.80;3.35;;;;;;;14.35;100.00;101161.16;5203711;28;20027;-67
2021/07/07 05:15:38;;;;;;;8.93;4.10;;;;;;;14.44;100.00;101162.94;5186153;28;20030;-67
2021/07/07 05:18:10;;;;;;;9.90;4.20;;;;;;;14.52;100.00;101163.06;5193236;28;20034;-67
2021/07/07 05:20:42;;;;;;;6.45;3.55;;;;;;;14.57;100.00;101166.06;5209648;28;20487;-67
2021/07/07 05:23:16;;;;;;;8.05;4.03;;;;;;;14.67;100.00;101168.66;5200901;28;20403;-67
2021/07/07 05:25:48;;;;;;;7.45;3.38;;;;;;;14.76;100.00;101162.47;5206638;28;20542;-68
2021/07/07 05:28:19;;;;;;;9.03;3.67;;;;;;;14.83;100.00;101160.06;5205312;28;20027;-68
2021/07/07 05:30:51;;;;;;;6.97;3.47;;;;;;;14.89;100.00;101158.63;5192991;28;20308;-67
2021/07/07 05:33:22;;;;;;;12.00;3.70;;;;;;;14.98;100.00;101163.84;5203866;28;20052;-67
2021/07/07 05:35:53;;;;;;;8.15;3.72;;;;;;;15.08;100.00;101161.13;5190421;28;20512;-67
2021/07/07 05:38:24;;;;;;;6.25;3.40;;;;;;;15.11;100.00;101165.25;5199283;28;20483;-67
2021/07/07 05:40:56;;;;;;;7.32;3.45;;;;;;;15.14;100.00;101168.44;5201728;28;20383;-68
2021/07/07 05:43:28;;;;;;;11.27;3.50;;;;;;;15.26;100.00;101175.13;5190568;28;20356;-68
2021/07/07 05:45:59;;;;;;;9.27;3.78;;;;;;;15.30;99.83;101168.59;5196491;28;20498;-68
2021/07/07 05:48:31;;;;;;;9.45;3.15;;;;;;;15.30;99.68;101165.94;5197055;28;20022;-68
2021/07/07 05:51:04;;;;;;;10.10;4.10;;;;;;;15.30;99.23;101165.94;5213103;28;20025;-67
2021/07/07 05:53:35;;;;;;;9.90;4.00;;;;;;;15.27;98.90;101174.16;5195235;28;20033;-67
2021/07/07 05:56:06;;;;;;;7.40;3.35;;;;;;;15.25;99.60;101178.75;5200112;28;20391;-67
2021/07/07 05:58:38;;;;;;;11.50;4.15;;;;;;;15.25;99.22;101181.38;5197291;28;20116;-68
2021/07/07 06:01:10;;;;;;;10.63;4.20;;;;;;;15.32;99.25;101190.38;5187892;28;20030;-68
2021/07/07 06:03:42;;;;;;;11.75;3.92;;;;;;;15.40;99.21;101194.88;5226563;23;20589;-67
2021/07/07 06:06:13;;;;;;;7.32;3.42;;;;;;;15.48;99.32;101192.28;5198165;28;20463;-68
2021/07/07 06:08:44;;;;;;;16.27;3.83;;;;;;;15.56;98.71;101195.00;5199957;28;20029;-68
2021/07/07 06:11:15;;;;;;;13.13;3.90;;;;;;;15.67;98.38;101185.19;5197477;28;20030;-67
2021/07/07 06:13:47;;;;;;;11.73;3.83;;;;;;;15.74;98.19;101186.25;5193181;28;20053;-67
2021/07/07 06:16:18;;;;;;;9.27;3.20;;;;;;;15.88;97.92;101200.72;5189953;28;20038;-67
2021/07/07 06:18:50;;;;;;;9.00;3.47;;;;;;;15.98;97.28;101193.47;5183045;28;20030;-68
2021/07/07 06:21:21;;;;;;;12.00;3.42;;;;;;;16.04;96.77;101204.25;5189147;28;20317;-67
2021/07/07 06:23:53;;;;;;;9.90;3.67;;;;;;;16.14;95.77;101204.16;5187595;28;20279;-68
2021/07/07 06:26:28;;;;;;;11.80;3.67;;;;;;;16.25;96.32;101201.25;5162742;28;20037;-68
2021/07/07 06:29:04;;;;;;;12.30;3.88;;;;;;;16.32;95.65;101200.59;5183955;28;20027;-68
2021/07/07 06:31:35;;;;;;;8.02;3.60;;;;;;;16.40;95.26;101206.75;5186168;28;20019;-67
2021/07/07 06:34:06;;;;;;;12.43;3.88;;;;;;;16.47;95.10;101210.41;5176397;28;20465;-68
2021/07/07 06:36:38;;;;;;;10.07;3.60;;;;;;;16.59;94.54;101208.28;5190410;28;20029;-68
2021/07/07 06:39:09;;;;;;;10.25;3.05;;;;;;;16.67;94.34;101212.81;5178259;28;20073;-68
2021/07/07 06:41:41;;;;;;;6.47;3.05;;;;;;;16.82;93.50;101207.72;5168706;28;20025;-68
2021/07/07 06:44:12;;;;;;;7.90;3.50;;;;;;;16.92;93.27;101209.22;5185878;28;20019;-69
2021/07/07 06:46:43;;;;;;;10.30;3.17;;;;;;;17.04;93.34;101207.09;5188481;28;20030;-68
2021/07/07 06:49:15;;;;;;;8.90;3.05;;;;;;;17.16;92.80;101220.84;5176579;28;20110;-68
2021/07/07 06:51:46;;;;;;;9.23;3.38;;;;;;;17.28;91.83;101227.50;5184150;28;20026;-68
2021/07/07 06:54:17;;;;;;;7.78;3.08;;;;;;;17.32;91.20;101226.19;5165616;28;20061;-68
2021/07/07 06:56:49;;;;;;;8.85;3.22;;;;;;;17.44;90.97;101224.84;5174757;28;20022;-68
2021/07/07 06:59:20;;;;;;;13.50;3.10;;;;;;;17.47;90.21;101227.16;5184861;28;20033;-67
2021/07/07 07:01:52;;;;;;;6.35;2.38;;;;;;;17.57;90.02;101226.16;5193886;28;20053;-68
2021/07/07 07:04:23;;;;;;;8.68;2.88;;;;;;;17.70;90.37;101240.56;5188662;28;20041;-68
2021/07/07 07:06:55;;;;;;;10.13;2.90;;;;;;;17.79;89.76;101237.94;5190055;28;20019;-68
2021/07/07 07:09:26;;;;;;;8.53;3.00;;;;;;;17.84;88.78;101240.91;5195536;28;20036;-67
2021/07/07 07:11:58;;;;;;;9.00;2.47;;;;;;;17.92;87.86;101238.25;5188489;28;20022;-68
2021/07/07 07:14:29;;;;;;;8.07;2.40;;;;;;;18.05;87.26;101241.19;5187251;28;20038;-68
2021/07/07 07:17:00;;;;;;;5.93;2.75;;;;;;;18.12;86.87;101244.84;5183772;28;20027;-68
2021/07/07 07:19:32;;;;;;;7.65;2.80;;;;;;;18.28;86.65;101253.75;5188853;28;20039;-68
2021/07/07 07:22:03;;;;;;;8.73;2.37;;;;;;;18.34;84.44;101253.91;5186165;28;20022;-68
2021/07/07 07:24:34;;;;;;;8.23;2.53;;;;;;;18.38;84.82;101254.38;5191664;28;20080;-68
2021/07/07 07:27:06;;;;;;;8.07;2.70;;;;;;;18.55;83.85;101255.97;5188665;28;20027;-69
2021/07/07 07:29:38;;;;;;;8.57;3.03;;;;;;;18.69;84.33;101260.53;5190273;28;20035;-68
2021/07/07 07:32:10;;;;;;;9.60;2.30;;;;;;;18.78;83.00;101256.03;5174281;28;20395;-68
2021/07/07 07:34:41;;;;;;;5.83;2.57;;;;;;;18.85;81.46;101262.31;5172553;28;20043;-69
2021/07/07 07:37:20;;;;;;;11.45;2.78;;;;;;;18.98;80.34;101269.72;5187614;28;20105;-68
2021/07/07 07:39:53;;;;;;;7.80;2.60;;;;;;;19.06;81.23;101268.84;5189330;28;20061;-68
2021/07/07 07:42:25;;;;;;;6.10;2.13;;;;;;;19.22;80.38;101265.28;5189147;28;20019;-69
2021/07/07 07:44:56;;;;;;;9.68;2.42;;;;;;;19.31;80.65;101278.28;5181258;28;20023;-68
2021/07/07 07:47:27;;;;;;;7.90;2.43;;;;;;;19.52;79.76;101275.00;5185382;28;20054;-68
2021/07/07 07:49:58;;;;;;;7.27;2.20;;;;;;;19.43;76.59;101260.97;5191133;28;20022;-68
2021/07/07 07:52:30;;;;;;;4.40;1.90;;;;;;;19.55;76.64;101274.66;5191145;28;20030;-69
2021/07/07 07:55:01;;;;;;;6.07;2.40;;;;;;;19.67;77.12;101261.78;5182024;28;20029;-68
2021/07/07 07:57:36;;;;;;;9.53;2.30;;;;;;;19.72;76.20;101269.22;5177842;28;20530;-68
2021/07/07 08:00:14;;;;;;;7.65;2.13;;;;;;;19.74;76.50;101262.72;5188134;28;20030;-68
2021/07/07 08:02:46;;;;;;;8.00;2.45;;;;;;;19.83;76.75;101274.09;5192715;28;20026;-68
2021/07/07 08:05:18;;;;;;;4.32;1.85;;;;;;;19.79;75.41;101270.16;5183480;28;20046;-68
2021/07/07 08:07:50;;;;;;;7.72;2.65;;;;;;;19.68;75.59;101269.56;5182425;28;20049;-68
2021/07/07 08:10:22;;;;;;;7.53;2.03;;;;;;;19.75;73.90;101276.84;5180872;28;20031;-68
2021/07/07 08:12:54;;;;;;;8.85;2.17;;;;;;;19.86;74.82;101268.44;5186846;28;20029;-68
2021/07/07 08:15:27;;;;;;;7.22;2.35;;;;;;;20.02;75.28;101276.25;5189288;28;20026;-68
2021/07/07 08:17:58;;;;;;;8.05;2.20;;;;;;;20.04;74.69;101268.94;5187423;28;20039;-69
2021/07/07 08:20:29;;;;;;;5.30;2.20;;;;;;;20.07;73.69;101273.03;5190837;28;20037;-68
2021/07/07 08:23:01;;;;;;;6.37;2.33;;;;;;;20.18;72.74;101273.41;5186786;28;20462;-68
2021/07/07 08:25:32;;;;;;;6.00;2.00;;;;;;;20.57;74.27;101285.66;5195395;28;20033;-68
2021/07/07 08:28:04;;;;;;;6.77;2.30;;;;;;;20.74;73.29;101286.28;5187771;28;20157;-68
2021/07/07 08:30:35;;;;;;;6.50;2.10;;;;;;;20.81;71.92;101278.38;5170511;28;20145;-69
2021/07/07 08:33:06;;;;;;;8.90;2.00;;;;;;;20.93;72.24;101279.53;5184670;28;20361;-69
2021/07/07 08:35:38;;;;;;;8.13;2.80;;;;;;;20.87;70.85;101281.13;5195176;28;20023;-68
2021/07/07 08:38:10;;;;;;;7.93;2.23;;;;;;;20.80;70.20;101290.03;5170533;28;20022;-68
2021/07/07 08:40:41;;;;;;;6.80;2.08;;;;;;;20.85;70.17;101287.63;5189178;28;20384;-68
2021/07/07 08:43:12;;;;;;;7.97;2.17;;;;;;;20.99;70.29;101293.94;5189295;28;20041;-68
2021/07/07 08:45:44;;;;;;;7.73;2.27;;;;;;;21.25;69.41;101288.06;5193466;28;20033;-69
2021/07/07 08:48:16;;;;;;;5.30;2.27;;;;;;;21.52;70.01;101284.69;5187076;28;20038;-68
2021/07/07 08:50:47;;;;;;;7.73;2.30;;;;;;;21.53;70.43;101280.16;5189692;28;20109;-68
2021/07/07 08:53:18;;;;;;;6.57;2.53;;;;;;;21.72;69.51;101289.34;5190965;28;20069;-69
2021/07/07 08:55:51;;;;;;;7.77;2.30;;;;;;;21.94;69.27;101298.16;5190143;28;20395;-68
2021/07/07 08:58:23;;;;;;;6.20;2.65;;;;;;;21.90;67.02;101292.38;5193257;28;20596;-68
2021/07/07 09:00:59;;;;;;;8.03;2.20;;;;;;;22.17;67.06;101297.94;5180292;28;20102;-68
2021/07/07 09:03:30;;;;;;;9.52;2.17;;;;;;;22.20;67.10;101298.38;5187866;28;20050;-68
2021/07/07 09:06:05;;;;;;;5.77;2.23;;;;;;;22.33;67.16;101300.28;5184464;28;20018;-68
2021/07/07 09:08:41;;;;;;;7.60;1.90;;;;;;;22.47;66.54;101303.88;5183243;28;20511;-69
2021/07/07 09:11:29;;;;;;;7.95;2.67;;;;;;;22.52;66.18;101307.56;5186118;28;20034;-69
2021/07/07 09:14:14;;;;;;;8.77;2.25;;;;;;;22.30;63.42;101314.84;5187930;28;20101;-68
2021/07/07 09:16:47;;;;;;;6.25;2.22;;;;;;;22.15;63.50;101327.47;5181617;28;20054;-68
2021/07/07 09:19:19;;;;;;;;;;;;;;;22.53;64.51;101324.41;5182946;28;20376;-69
2021/07/07 09:21:53;;;;;;;4.93;1.88;;;;;;;22.56;63.01;101316.84;5183591;28;19910;-69
2021/07/07 09:24:25;;;;;;;7.57;1.88;;;;;;;22.59;61.82;101326.31;5186587;28;20493;-68
2021/07/07 09:27:02;;;;;;;5.70;1.95;;;;;;;22.53;61.83;101332.44;5182297;28;20062;-68
2021/07/07 09:29:44;;;;;;;5.47;2.08;;;;;;;22.54;63.28;101331.41;5187496;28;20133;-68
2021/07/07 09:32:21;;;;;;;5.93;2.07;;;;;;;22.49;62.74;101332.00;5190908;28;20424;-69
2021/07/07 09:34:52;;;;;;;5.70;1.95;;;;;;;22.27;63.15;101344.59;5180917;28;20069;-68
2021/07/07 09:37:25;;;;;;;6.53;1.73;;;;;;;22.22;61.89;101346.19;5190237;28;20022;-68
2021/07/07 09:39:56;;;;;;;;;;;;;;;22.52;60.69;101339.63;5185790;28;20030;-68
2021/07/07 09:42:34;;;;;;;5.20;1.90;;;;;;;22.24;62.63;101346.84;5190573;28;19920;-69
2021/07/07 09:45:08;;;;;;;5.35;1.75;;;;;;;21.98;62.66;101350.94;5194117;28;20400;-68
2021/07/07 09:47:40;;;;;;;6.82;1.75;;;;;;;21.73;63.12;101357.69;5186626;28;20026;-68
2021/07/07 09:50:15;;;;;;;5.20;1.77;;;;;;;21.85;63.35;101364.13;5193698;28;20041;-68
2021/07/07 09:52:46;;;;;;;3.88;1.73;;;;;;;21.64;63.73;101354.31;5190404;28;20081;-69
2021/07/07 09:55:18;;;;;;;5.83;1.87;;;;;;;21.61;64.29;101352.84;5193238;28;20022;-68
2021/07/07 09:57:49;;;;;;;3.97;1.67;;;;;;;22.07;65.48;101362.28;5181654;28;20126;-68
2021/07/07 10:00:23;;;;;;;5.97;1.73;;;;;;;22.28;64.39;101369.47;5182636;28;20030;-68
2021/07/07 10:02:54;;;;;;;4.07;1.67;;;;;;;22.57;63.89;101358.53;5186393;28;20116;-68
2021/07/07 10:05:29;;;;;;;4.37;1.70;;;;;;;22.42;61.42;101363.16;5193538;28;20101;-69
2021/07/07 10:08:01;;;;;;;4.22;1.50;;;;;;;22.37;61.75;101370.94;5183786;28;20106;-68
2021/07/07 10:10:33;;;;;;;5.27;1.80;;;;;;;22.25;61.79;101375.19;5191439;28;20113;-68
2021/07/07 10:13:05;;;;;;;8.40;2.15;;;;;;;22.22;62.89;101380.91;5186909;28;20376;-69
2021/07/07 10:15:37;;;;;;;6.20;1.85;;;;;;;21.98;63.26;101380.28;5184067;28;20046;-69
2021/07/07 10:18:09;;;;;;;7.28;2.15;;;;;;;22.03;63.09;101388.53;5188233;28;20030;-68
2021/07/07 10:20:40;;;;;;;7.67;2.00;;;;;;;21.99;63.72;101387.25;5182535;28;20503;-68
2021/07/07 10:23:13;;;;;;;6.93;1.93;;;;;;;21.96;63.23;101400.97;5185084;28;20034;-68
2021/07/07 10:25:45;;;;;;;7.50;2.08;;;;;;;21.87;63.88;101394.13;5185570;28;20129;-69
2021/07/07 10:28:17;;;;;;;4.53;1.80;;;;;;;22.01;63.90;101393.25;5185350;28;20109;-69
2021/07/07 10:31:00;;;;;;;6.15;1.70;;;;;;;22.29;65.30;101373.78;5183396;28;20061;-69
2021/07/07 10:33:38;;;;;;;4.40;1.75;;;;;;;22.33;64.24;101396.38;5183546;28;20122;-68
2021/07/07 10:36:20;;;;;;;5.97;2.10;;;;;;;22.43;61.68;101388.88;5188114;28;20153;-68
2021/07/07 10:39:05;;;;;;;4.95;2.20;;;;;;;22.62;62.56;101392.69;5177885;28;20376;-69
2021/07/07 10:41:42;;;;;;;6.57;1.80;;;;;;;22.65;62.41;101384.25;5191405;28;20121;-68
2021/07/07 10:44:23;;;;;;;6.43;1.98;;;;;;;22.52;61.74;101393.03;5170662;28;20511;-68
2021/07/07 10:47:00;;;;;;;4.35;1.90;;;;;;;22.54;61.77;101401.69;5180981;28;20201;-68
2021/07/07 10:49:39;;;;;;;4.28;1.92;;;;;;;22.69;61.68;101390.88;5188776;28;20109;-69
2021/07/07 10:52:12;;;;;;;4.65;1.90;;;;;;;22.83;60.57;101397.94;5183831;28;20072;-68
2021/07/07 10:54:58;;;;;;;4.35;1.85;;;;;;;23.21;62.17;101399.38;5185460;28;20025;-68
2021/07/07 10:57:37;;;;;;;5.82;2.17;;;;;;;23.41;59.32;101408.31;5190559;28;20030;-68
2021/07/07 11:00:34;;;;;;;5.05;2.03;;;;;;;23.54;59.00;101400.31;5182879;28;20339;-68
2021/07/07 11:03:32;;;;;;;6.13;1.88;;;;;;;23.61;57.59;101408.34;5186709;28;20034;-68
2021/07/07 11:06:22;;;;;;;4.65;1.73;;;;;;;24.01;56.29;101400.38;5186012;28;20038;-69
2021/07/07 11:09:05;;;;;;;2.90;1.60;;;;;;;24.08;58.76;101395.03;5185600;28;20080;-68
2021/07/07 11:11:37;;;;;;;7.82;1.80;;;;;;;24.09;53.19;101399.34;5183185;28;20030;-68
2021/07/07 11:14:25;;;;;;;5.10;1.88;;;;;;;24.03;53.43;101412.53;5178697;28;20460;-69
2021/07/07 11:17:01;;;;;;;2.75;1.42;;;;;;;24.10;53.67;101409.88;5186041;28;20042;-69
2021/07/07 11:19:39;;;;;;;5.45;1.58;;;;;;;24.25;55.42;101418.53;5186677;28;20034;-69
2021/07/07 11:22:14;;;;;;;5.55;1.88;;;;;;;23.95;54.34;101415.44;5186496;28;20450;-68
2021/07/07 11:24:48;;;;;;;2.78;1.40;;;;;;;23.76;55.44;101422.41;5187837;28;20030;-68
2021/07/07 11:27:21;;;;;;;6.20;1.90;;;;;;;23.79;54.49;101402.44;5191704;28;20480;-69
2021/07/07 11:29:53;;;;;;;7.03;1.80;;;;;;;24.02;55.59;101410.09;5185190;28;20038;-68
2021/07/07 11:32:32;;;;;;;4.43;1.83;;;;;;;24.05;54.56;101409.66;5184107;28;20054;-68
2021/07/07 11:35:30;;;;;;;3.90;1.60;;;;;;;24.31;54.65;101416.03;5184103;28;20027;-69
2021/07/07 11:38:02;;;;;;;5.03;1.80;;;;;;;24.04;53.96;101416.88;5175073;28;20125;-68
2021/07/07 11:40:35;;;;;;;4.53;1.97;;;;;;;24.29;53.50;101416.25;5185692;28;20498;-69
2021/07/07 11:43:08;;;;;;;7.70;1.85;;;;;;;24.36;52.87;101418.91;5195018;28;20237;-68
2021/07/07 11:45:45;;;;;;;4.22;1.60;;;;;;;24.47;51.69;101419.16;5183479;28;20392;-68
2021/07/07 11:48:31;;;;;;;4.57;1.80;;;;;;;24.76;51.84;101412.50;5187400;28;20057;-68